EW7082 Sequim WA US current weather conditions

sailwx.info

Wind from 266 at 10 knots gusting 18

Air temperature 12.8° C
Dewpoint 11.8° C

Last reported at 2020-Aug-06 12:07 UTC.
Time now 2020-Aug-06 13:07 UTC

Location: N 48°06' W 123°08'.
View on Google Maps.

See reports from other nearby stations

  
Tides and Currents Weather Stations Pressure Air Temp Water Temp Dewpoint Dewpoint Depression Visibility Wind Speed Wind Dir Waves Ship Positions
date/time (UTC)wind fromknots sea level pressurealtimeterstation pressurevisibilityair tempwater tempwave heightnotes
2020-Aug-06 12:07 266 10 gusting 18 12.8
2020-Aug-06 12:02 254 8 gusting 19 12.8
2020-Aug-06 11:57 259 10 gusting 21 12.8
2020-Aug-06 11:52 269 11 gusting 15 12.8
2020-Aug-06 11:47 266 10 gusting 17 12.8
2020-Aug-06 11:42 271 9 gusting 17 13.3
2020-Aug-06 11:37 260 11 gusting 17 13.3
2020-Aug-06 11:32 273 8 gusting 14 13.9
2020-Aug-06 11:27 279 11 gusting 19 14.4
2020-Aug-06 11:22 263 4 gusting 14 15.0
2020-Aug-06 11:17 274 3 gusting 6 15.0
2020-Aug-06 11:12 302 1 gusting 2 15.0
2020-Aug-06 11:07 303 1 gusting 2 15.0
2020-Aug-06 11:02 303 1 gusting 2 15.0
2020-Aug-06 10:57 048 15.0
2020-Aug-06 10:52 048 15.0
2020-Aug-06 10:47 048 15.0
2020-Aug-06 10:42 048 15.0
2020-Aug-06 10:37 048 15.0
2020-Aug-06 10:32 048 15.0
2020-Aug-06 10:27 048 15.0
2020-Aug-06 10:22 048 15.0
2020-Aug-06 10:17 048 15.0
2020-Aug-06 10:12 048 15.0
2020-Aug-06 10:07 048 15.0
2020-Aug-06 10:02 048 15.0
2020-Aug-06 09:57 048 15.0
2020-Aug-06 09:52 048 15.0
2020-Aug-06 09:47 048 15.0
2020-Aug-06 09:42 048 15.0
2020-Aug-06 09:37 048 15.6
2020-Aug-06 09:32 048 15.6
2020-Aug-06 09:27 048 15.6
2020-Aug-06 09:22 048 15.6
2020-Aug-06 09:17 048 15.6
2020-Aug-06 09:12 048 0 gusting 0 15.6
2020-Aug-06 09:07 048 16.1
2020-Aug-06 09:02 048 16.1
2020-Aug-06 08:57 048 0 gusting 1 16.1
2020-Aug-06 08:52 048 16.1
2020-Aug-06 08:47 048 16.1
2020-Aug-06 08:42 048 0 gusting 1 16.1
2020-Aug-06 08:37 048 0 gusting 1 16.1
2020-Aug-06 08:32 048 0 gusting 1 16.1
2020-Aug-06 08:27 048 1 gusting 2 16.1
2020-Aug-06 08:22 046 2 gusting 2 16.1
2020-Aug-06 08:17 077 1 gusting 2 16.1
2020-Aug-06 08:12 077 1 gusting 2 16.1
2020-Aug-06 08:07 143 16.1
2020-Aug-06 08:02 147 16.1
2020-Aug-06 07:57 147 16.1
2020-Aug-06 07:52 147 16.1
2020-Aug-06 07:47 147 0 gusting 1 16.1
2020-Aug-06 07:42 147 0 gusting 2 16.1
2020-Aug-06 07:37 147 1 gusting 2 16.1
2020-Aug-06 07:32 244 1 gusting 1 16.1
2020-Aug-06 07:27 244 0 gusting 2 16.1
2020-Aug-06 07:22 244 0 gusting 1 16.1
2020-Aug-06 07:17 244 1 gusting 2 16.1
2020-Aug-06 07:12 244 1 gusting 2 16.1
2020-Aug-06 07:07 244 1 gusting 2 16.1
2020-Aug-06 07:02 244 1 gusting 2 16.1
2020-Aug-06 06:57 237 2 gusting 4 16.1
2020-Aug-06 06:52 244 1 gusting 2 16.1
2020-Aug-06 06:47 235 2 gusting 6 16.1
2020-Aug-06 06:42 235 4 gusting 6 16.1
2020-Aug-06 06:37 235 4 gusting 6 16.1
2020-Aug-06 06:32 244 3 gusting 6 16.1
2020-Aug-06 06:27 227 4 gusting 6 16.1
2020-Aug-06 06:22 247 4 gusting 6 16.1
2020-Aug-06 06:17 237 4 gusting 6 16.1
2020-Aug-06 06:12 243 5 gusting 8 16.1
2020-Aug-06 06:07 250 6 gusting 8 16.1
2020-Aug-06 06:02 229 5 gusting 8 16.1
2020-Aug-06 05:57 242 5 gusting 10 16.1
2020-Aug-06 05:52 242 4 gusting 8 16.1
2020-Aug-06 05:47 239 6 gusting 11 16.1
2020-Aug-06 05:42 251 4 gusting 7 16.1
2020-Aug-06 05:37 249 4 gusting 6 16.1
2020-Aug-06 05:32 232 5 gusting 11 16.1
2020-Aug-06 05:27 235 5 gusting 8 16.1
2020-Aug-06 05:22 241 6 gusting 13 16.1
2020-Aug-06 05:17 257 7 gusting 13 16.1
2020-Aug-06 05:12 250 6 gusting 10 16.1
2020-Aug-06 05:07 258 6 gusting 10 16.1
2020-Aug-06 05:02 249 6 gusting 10 16.1
2020-Aug-06 04:57 251 6 gusting 10 16.1
2020-Aug-06 04:52 265 6 gusting 10 16.1
2020-Aug-06 04:47 262 5 gusting 8 16.1
2020-Aug-06 04:42 246 5 gusting 7 16.1
2020-Aug-06 04:37 254 4 gusting 8 16.1
2020-Aug-06 04:32 266 6 gusting 12 16.1
2020-Aug-06 04:27 259 6 gusting 11 16.1
2020-Aug-06 04:22 268 6 gusting 11 16.1
2020-Aug-06 04:17 257 7 gusting 11 16.1
2020-Aug-06 04:12 261 8 gusting 13 16.1
2020-Aug-06 04:07 263 7 gusting 12 16.7
2020-Aug-06 04:02 267 6 gusting 10 16.7
2020-Aug-06 03:57 263 8 gusting 13 16.7
2020-Aug-06 03:52 249 6 gusting 10 16.7
2020-Aug-06 03:47 266 6 gusting 13 16.7
2020-Aug-06 03:42 250 6 gusting 10 16.7
2020-Aug-06 03:37 260 6 gusting 11 16.7
2020-Aug-06 03:32 249 7 gusting 12 16.7
2020-Aug-06 03:27 257 8 gusting 14 17.2
2020-Aug-06 03:22 253 10 gusting 14 17.2
2020-Aug-06 03:17 268 10 gusting 15 17.2
2020-Aug-06 03:12 258 12 gusting 17 17.2
2020-Aug-06 03:07 254 11 gusting 18 17.2
2020-Aug-06 03:02 270 11 gusting 17 17.2
2020-Aug-06 02:57 265 11 gusting 15 17.8
2020-Aug-06 02:52 255 8 gusting 14 17.8
2020-Aug-06 02:47 251 12 gusting 17 17.8
2020-Aug-06 02:42 259 10 gusting 14 17.8
2020-Aug-06 02:37 260 12 gusting 18 17.8
2020-Aug-06 02:32 258 8 gusting 15 17.2
2020-Aug-06 02:27 256 13 gusting 21 17.2
2020-Aug-06 02:22 254 8 gusting 17 17.8
2020-Aug-06 02:17 249 13 gusting 22 17.8
2020-Aug-06 02:12 263 11 gusting 18 17.8
2020-Aug-06 02:07 255 12 gusting 17 17.8
2020-Aug-06 02:02 264 13 gusting 18 17.8
2020-Aug-06 01:57 254 13 gusting 20 17.8
2020-Aug-06 01:52 266 12 gusting 19 17.8
2020-Aug-06 01:47 252 11 gusting 20 17.8
2020-Aug-06 01:42 263 12 gusting 21 17.8
2020-Aug-06 01:37 257 12 gusting 17 17.8
2020-Aug-06 01:32 259 12 gusting 19 17.8
2020-Aug-06 01:27 268 11 gusting 19 17.8
2020-Aug-06 01:22 251 10 gusting 21 17.8
2020-Aug-06 01:17 265 10 gusting 21 17.8
2020-Aug-06 01:12 255 11 gusting 24 17.8
2020-Aug-06 01:07 264 13 gusting 21 17.8
2020-Aug-06 01:02 259 12 gusting 19 17.8
2020-Aug-06 00:57 269 12 gusting 18 18.3
2020-Aug-06 00:52 265 11 gusting 17 18.3
2020-Aug-06 00:47 264 12 gusting 19 18.9
2020-Aug-06 00:42 267 10 gusting 18 18.3
2020-Aug-06 00:37 246 10 gusting 17 18.9
2020-Aug-06 00:32 268 9 gusting 19 18.9
2020-Aug-06 00:27 277 11 gusting 17 18.9
2020-Aug-06 00:22 256 13 gusting 19 18.9
2020-Aug-06 00:17 261 12 gusting 17 18.9
2020-Aug-06 00:12 263 13 gusting 22 18.9
2020-Aug-06 00:07 262 10 gusting 19 18.9
2020-Aug-06 00:02 267 10 gusting 15 19.4
2020-Aug-05 23:57 272 10 gusting 14 19.4
2020-Aug-05 23:52 280 9 gusting 14 19.4
2020-Aug-05 23:47 273 9 gusting 14 19.4
2020-Aug-05 23:42 279 9 gusting 14 19.4
2020-Aug-05 23:37 281 10 gusting 18 19.4
2020-Aug-05 23:32 271 8 gusting 13 20.0
2020-Aug-05 23:27 262 8 gusting 11 20.0
2020-Aug-05 23:22 262 7 gusting 13 20.0
2020-Aug-05 23:17 262 7 gusting 13 19.4
2020-Aug-05 23:12 248 7 gusting 13 19.4
2020-Aug-05 23:07 263 11 gusting 15 19.4
2020-Aug-05 23:02 269 8 gusting 17 19.4
2020-Aug-05 22:57 258 7 gusting 17 19.4
2020-Aug-05 22:52 265 7 gusting 13 19.4
2020-Aug-05 22:47 274 9 gusting 18 19.4
2020-Aug-05 22:42 247 10 gusting 14 19.4
2020-Aug-05 22:37 236 8 gusting 13 19.4
2020-Aug-05 22:32 253 8 gusting 14 19.4
2020-Aug-05 22:27 262 11 gusting 15 18.9
2020-Aug-05 22:22 248 11 gusting 15 18.9
2020-Aug-05 22:17 254 11 gusting 14 19.4
2020-Aug-05 22:12 246 9 gusting 15 19.4
2020-Aug-05 22:07 267 8 gusting 14 19.4
2020-Aug-05 22:02 252 10 gusting 17 19.4
2020-Aug-05 21:57 257 8 gusting 13 19.4
2020-Aug-05 21:52 260 7 gusting 12 19.4
2020-Aug-05 21:47 280 10 gusting 13 18.9
2020-Aug-05 21:42 262 10 gusting 14 18.9
2020-Aug-05 21:37 267 9 gusting 17 19.4
2020-Aug-05 21:32 261 10 gusting 17 18.9
2020-Aug-05 21:27 256 10 gusting 14 18.9
2020-Aug-05 21:22 267 10 gusting 17 19.4
2020-Aug-05 21:17 273 8 gusting 13 18.9
2020-Aug-05 21:12 270 10 gusting 13 19.4
2020-Aug-05 21:07 282 8 gusting 13 19.4
2020-Aug-05 21:02 276 8 gusting 13 19.4
2020-Aug-05 20:57 271 6 gusting 11 19.4
2020-Aug-05 20:52 283 7 gusting 12 19.4
2020-Aug-05 20:47 270 7 gusting 11 18.9
2020-Aug-05 20:42 244 8 gusting 15 18.9
2020-Aug-05 20:37 248 8 gusting 13 18.3
2020-Aug-05 20:32 256 10 gusting 14 18.9
2020-Aug-05 20:27 263 7 gusting 13 18.9
2020-Aug-05 20:22 250 9 gusting 17 18.3
2020-Aug-05 20:17 251 7 gusting 14 18.9
2020-Aug-05 20:12 248 7 gusting 18 18.9
2020-Aug-05 20:07 275 8 gusting 13 18.9
2020-Aug-05 20:02 276 10 gusting 14 18.3
2020-Aug-05 19:57 293 7 gusting 12 18.9
2020-Aug-05 19:52 281 8 gusting 12 18.3
2020-Aug-05 19:47 280 8 gusting 14 18.3
2020-Aug-05 19:42 264 9 gusting 13 18.3
2020-Aug-05 19:37 280 8 gusting 14 18.3
2020-Aug-05 19:32 270 9 gusting 13 18.3
2020-Aug-05 19:27 263 8 gusting 13 18.3
2020-Aug-05 19:22 252 8 gusting 15 17.8
2020-Aug-05 19:17 266 10 gusting 13 18.3
2020-Aug-05 19:12 264 5 gusting 10 18.3
2020-Aug-05 19:07 263 7 gusting 11 17.8
2020-Aug-05 19:02 263 6 gusting 12 17.8
2020-Aug-05 18:57 269 10 gusting 13 17.8
2020-Aug-05 18:52 247 9 gusting 12 17.8
2020-Aug-05 18:47 256 7 gusting 10 17.8
2020-Aug-05 18:42 269 7 gusting 11 17.8
2020-Aug-05 18:37 255 6 gusting 10 17.8
2020-Aug-05 18:32 300 6 gusting 11 17.2
2020-Aug-05 18:27 285 6 gusting 11 17.2
2020-Aug-05 18:22 298 7 gusting 10 17.2
2020-Aug-05 18:17 297 5 gusting 10 17.2
2020-Aug-05 18:12 308 7 gusting 11 17.2
2020-Aug-05 18:07 305 7 gusting 11 17.2
2020-Aug-05 18:02 300 7 gusting 12 17.2
2020-Aug-05 17:57 305 8 gusting 11 17.2
2020-Aug-05 17:52 288 7 gusting 12 17.2
2020-Aug-05 17:47 285 6 gusting 12 17.2
2020-Aug-05 17:42 264 7 gusting 13 17.2
2020-Aug-05 17:37 270 6 gusting 10 17.2
2020-Aug-05 17:32 288 6 gusting 10 17.2
2020-Aug-05 17:27 290 7 gusting 12 16.7
2020-Aug-05 17:22 267 7 gusting 13 16.7
2020-Aug-05 17:17 287 6 gusting 11 16.7
2020-Aug-05 17:12 270 6 gusting 12 16.7
2020-Aug-05 17:07 274 9 gusting 13 16.1
2020-Aug-05 17:02 261 8 gusting 14 16.1
2020-Aug-05 16:57 247 6 gusting 12 16.1
2020-Aug-05 16:52 268 10 gusting 14 16.1
2020-Aug-05 16:47 268 6 gusting 14 16.1
2020-Aug-05 16:42 264 8 gusting 13 16.1
2020-Aug-05 16:37 262 5 gusting 10 16.1
2020-Aug-05 16:32 261 8 gusting 13 16.1
2020-Aug-05 16:27 253 7 gusting 12 16.1
2020-Aug-05 16:22 262 6 gusting 11 16.1
2020-Aug-05 16:17 265 6 gusting 13 16.1
2020-Aug-05 16:12 258 7 gusting 12 15.6
2020-Aug-05 16:07 258 8 gusting 13 15.6
2020-Aug-05 16:02 281 8 gusting 14 15.6
2020-Aug-05 15:57 276 7 gusting 13 15.6
2020-Aug-05 15:52 282 6 gusting 12 15.6
2020-Aug-05 15:47 270 6 gusting 11 15.6
2020-Aug-05 15:42 278 5 gusting 10 15.6
2020-Aug-05 15:37 240 6 gusting 10 15.6
2020-Aug-05 15:32 233 6 gusting 11 15.0
2020-Aug-05 15:27 265 7 gusting 11 15.0
2020-Aug-05 15:22 270 6 gusting 13 15.0
2020-Aug-05 15:17 248 8 gusting 13 14.4
2020-Aug-05 15:12 260 7 gusting 13 14.4
2020-Aug-05 15:07 263 10 gusting 15 14.4
2020-Aug-05 15:02 251 8 gusting 13 14.4
2020-Aug-05 14:57 256 6 gusting 11 14.4
2020-Aug-05 14:52 255 5 gusting 8 13.9
2020-Aug-05 14:47 249 4 gusting 6 13.9
2020-Aug-05 14:42 256 5 gusting 8 13.3
2020-Aug-05 14:37 257 4 gusting 7 13.3
2020-Aug-05 14:32 252 5 gusting 8 13.3
2020-Aug-05 14:27 256 3 gusting 6 12.8
2020-Aug-05 14:22 233 2 gusting 7 12.8
2020-Aug-05 14:17 268 5 gusting 8 12.8
2020-Aug-05 14:12 272 2 gusting 6 12.2
2020-Aug-05 14:07 269 1 gusting 2 12.2
2020-Aug-05 14:02 241 1 gusting 2 12.2
2020-Aug-05 13:57 241 0 gusting 2 11.7
2020-Aug-05 13:52 241 0 gusting 1 11.7
2020-Aug-05 13:47 241 1 gusting 2 11.7
2020-Aug-05 13:42 241 1 gusting 2 11.7
2020-Aug-05 13:37 242 1 gusting 2 11.7
2020-Aug-05 13:32 242 1 gusting 2 11.7
2020-Aug-05 13:27 242 1 gusting 2 11.7
2020-Aug-05 13:22 242 1 gusting 2 11.7
2020-Aug-05 13:17 225 1 gusting 4 11.7
2020-Aug-05 13:12 237 2 gusting 5 11.7
2020-Aug-05 13:07 225 1 gusting 5 11.7
2020-Aug-05 13:02 226 2 gusting 4 11.7
2020-Aug-05 12:57 252 1 gusting 5 11.7
2020-Aug-05 12:52 267 0 gusting 2 11.7
2020-Aug-05 12:47 267 0 gusting 1 11.7
2020-Aug-05 12:42 267 0 gusting 1 11.7
2020-Aug-05 12:37 267 1 gusting 2 11.7
2020-Aug-05 12:32 267 1 gusting 2 11.7
2020-Aug-05 12:27 251 1 gusting 2 11.7
2020-Aug-05 12:22 253 2 gusting 6 11.7
2020-Aug-05 12:17 252 2 gusting 5 11.7
2020-Aug-05 12:12 250 3 gusting 6 11.7
2020-Aug-05 12:07 260 3 gusting 6 11.7
2020-Aug-05 12:02 254 2 gusting 4 11.7
2020-Aug-05 11:57 287 1 gusting 2 11.7
2020-Aug-05 11:52 283 2 gusting 5 11.7
2020-Aug-05 11:47 263 2 gusting 6 12.2
2020-Aug-05 11:42 282 2 gusting 6 12.2
2020-Aug-05 11:37 258 1 gusting 5 12.2
2020-Aug-05 11:32 271 1 gusting 5 12.2
2020-Aug-05 11:27 259 2 gusting 5 12.2
2020-Aug-05 11:22 256 1 gusting 5 12.2
2020-Aug-05 11:17 246 0 gusting 2 12.2
2020-Aug-05 11:12 251 2 gusting 6 12.2
2020-Aug-05 11:07 265 2 gusting 8 12.2
2020-Aug-05 11:02 259 3 gusting 6 12.2
2020-Aug-05 10:57 249 3 gusting 7 12.2
2020-Aug-05 10:52 253 4 gusting 6 12.2
2020-Aug-05 10:47 262 3 gusting 6 12.2
2020-Aug-05 10:42 250 4 gusting 6 12.8
2020-Aug-05 10:37 258 4 gusting 7 12.8
2020-Aug-05 10:32 259 5 gusting 8 12.8
2020-Aug-05 10:27 259 5 gusting 8 12.8
2020-Aug-05 10:22 262 6 gusting 10 12.8
2020-Aug-05 10:17 256 6 gusting 10 12.8
2020-Aug-05 10:12 270 6 gusting 10 12.8
2020-Aug-05 10:07 260 5 gusting 10 12.8
2020-Aug-05 10:02 258 6 gusting 10 12.8
2020-Aug-05 09:57 266 6 gusting 10 12.8
2020-Aug-05 09:52 261 7 gusting 11 12.8
2020-Aug-05 09:47 269 6 gusting 10 12.8
2020-Aug-05 09:42 264 7 gusting 10 12.8
2020-Aug-05 09:37 274 6 gusting 10 12.8
2020-Aug-05 09:32 268 7 gusting 12 12.8
2020-Aug-05 09:27 271 6 gusting 10 13.3
2020-Aug-05 09:22 262 8 gusting 11 13.3
2020-Aug-05 09:17 269 6 gusting 12 13.3
2020-Aug-05 09:12 265 7 gusting 10 13.3
2020-Aug-05 09:07 259 5 gusting 8 13.3
2020-Aug-05 09:02 256 6 gusting 10 13.3
2020-Aug-05 08:57 258 6 gusting 10 13.9
2020-Aug-05 08:52 259 6 gusting 10 13.9
2020-Aug-05 08:47 267 6 gusting 11 13.9
2020-Aug-05 08:42 260 7 gusting 11 13.9
2020-Aug-05 08:37 256 6 gusting 11 13.9
2020-Aug-05 08:32 258 7 gusting 11 13.9
2020-Aug-05 08:27 268 6 gusting 13 14.4
2020-Aug-05 08:22 265 7 gusting 13 14.4
2020-Aug-05 08:17 267 7 gusting 10 14.4
2020-Aug-05 08:12 262 6 gusting 11 14.4
2020-Aug-05 08:07 266 7 gusting 11 14.4
2020-Aug-05 08:02 268 6 gusting 11 14.4
2020-Aug-05 07:57 273 6 gusting 10 14.4
2020-Aug-05 07:52 257 6 gusting 12 14.4
2020-Aug-05 07:47 258 7 gusting 11 14.4
2020-Aug-05 07:42 261 6 gusting 10 14.4
2020-Aug-05 07:37 260 6 gusting 11 14.4
2020-Aug-05 07:32 260 6 gusting 10 13.9
2020-Aug-05 07:27 260 7 gusting 11 13.9
2020-Aug-05 07:22 267 7 gusting 10 13.9
2020-Aug-05 07:17 260 6 gusting 10 13.9
2020-Aug-05 07:12 270 6 gusting 10 13.9
2020-Aug-05 07:07 265 7 gusting 13 13.9
2020-Aug-05 07:02 264 7 gusting 10 14.4
2020-Aug-05 06:57 264 6 gusting 10 14.4
2020-Aug-05 06:52 255 6 gusting 8 14.4
2020-Aug-05 06:47 257 6 gusting 10 15.0
2020-Aug-05 06:42 262 5 gusting 7 15.0
2020-Aug-05 06:37 271 5 gusting 10 15.6
2020-Aug-05 06:32 278 5 gusting 7 15.6
2020-Aug-05 06:27 267 5 gusting 6 16.1
2020-Aug-05 06:22 286 5 gusting 7 16.7
2020-Aug-05 06:17 265 2 gusting 5 16.7
2020-Aug-05 06:12 256 4 gusting 8 17.2
2020-Aug-05 06:07 256 4 gusting 7 17.2
2020-Aug-05 06:02 258 4 gusting 8 17.2
2020-Aug-05 05:57 265 4 gusting 7 17.2
2020-Aug-05 05:52 260 5 gusting 8 17.2
2020-Aug-05 05:47 254 5 gusting 7 17.2
2020-Aug-05 05:42 254 5 gusting 8 17.2
2020-Aug-05 05:37 267 4 gusting 7 17.2
2020-Aug-05 05:32 257 3 gusting 6 17.2
2020-Aug-05 05:27 252 5 gusting 7 17.2
2020-Aug-05 05:22 250 5 gusting 7 17.2
2020-Aug-05 05:17 253 4 gusting 6 17.2
2020-Aug-05 05:12 243 6 gusting 8 17.2
2020-Aug-05 05:07 240 5 gusting 10 17.2
2020-Aug-05 05:02 262 6 gusting 10 17.2
2020-Aug-05 04:57 255 6 gusting 10 17.2
2020-Aug-05 04:52 269 5 gusting 8 17.2
2020-Aug-05 04:47 267 5 gusting 6 17.2
2020-Aug-05 04:42 265 5 gusting 6 17.2
2020-Aug-05 04:37 270 4 gusting 8 17.2
2020-Aug-05 04:32 262 6 gusting 10 17.2
2020-Aug-05 04:27 258 5 gusting 7 17.2
2020-Aug-05 04:22 265 5 gusting 8 17.2
2020-Aug-05 04:17 266 5 gusting 7 17.2
2020-Aug-05 04:12 271 4 gusting 7 17.2
2020-Aug-05 04:07 265 3 gusting 5 17.2
2020-Aug-05 04:02 263 4 gusting 6 17.2
2020-Aug-05 03:57 257 6 gusting 8 17.2
2020-Aug-05 03:52 271 5 gusting 8 17.2
2020-Aug-05 03:47 264 6 gusting 10 17.8
2020-Aug-05 03:42 262 6 gusting 10 17.8
2020-Aug-05 03:37 267 6 gusting 11 17.8
2020-Aug-05 03:32 260 6 gusting 10 17.8
2020-Aug-05 03:27 265 5 gusting 7 17.8
2020-Aug-05 03:22 267 5 gusting 7 18.3
2020-Aug-05 03:17 267 5 gusting 7 18.3
2020-Aug-05 03:12 262 6 gusting 10 18.3
2020-Aug-05 03:07 270 6 gusting 12 18.9
2020-Aug-05 03:02 267 7 gusting 10 18.9
2020-Aug-05 02:57 270 6 gusting 12 18.9
2020-Aug-05 02:52 266 7 gusting 10 18.9
2020-Aug-05 02:47 264 7 gusting 11 18.9
2020-Aug-05 02:42 269 7 gusting 12 18.9
2020-Aug-05 02:37 269 7 gusting 12 18.9
2020-Aug-05 02:32 264 6 gusting 12 18.9
2020-Aug-05 02:27 264 8 gusting 11 18.9
2020-Aug-05 02:22 262 7 gusting 12 19.4
2020-Aug-05 02:17 268 6 gusting 10 19.4
2020-Aug-05 02:12 257 7 gusting 11 18.9
2020-Aug-05 02:07 260 8 gusting 12 19.4
2020-Aug-05 02:02 260 8 gusting 13 19.4
2020-Aug-05 01:57 270 7 gusting 12 19.4
2020-Aug-05 01:52 279 7 gusting 11 19.4
2020-Aug-05 01:47 280 7 gusting 12 19.4
2020-Aug-05 01:42 256 8 gusting 12 19.4
2020-Aug-05 01:37 268 10 gusting 14 19.4
2020-Aug-05 01:32 271 8 gusting 13 19.4
2020-Aug-05 01:27 265 8 gusting 13 19.4
2020-Aug-05 01:22 262 6 gusting 12 19.4
2020-Aug-05 01:17 265 8 gusting 13 18.9
2020-Aug-05 01:12 259 7 gusting 14 18.9
2020-Aug-05 01:07 269 9 gusting 13 18.9
2020-Aug-05 01:02 262 10 gusting 13 18.9
2020-Aug-05 00:57 262 9 gusting 13 18.9
2020-Aug-05 00:52 255 8 gusting 12 18.9
2020-Aug-05 00:47 246 8 gusting 12 19.4
2020-Aug-05 00:42 249 8 gusting 13 19.4
2020-Aug-05 00:37 250 9 gusting 13 19.4
2020-Aug-05 00:32 269 7 gusting 11 19.4
2020-Aug-05 00:27 285 9 gusting 13 19.4
2020-Aug-05 00:22 277 6 gusting 12 20.0
2020-Aug-05 00:17 259 7 gusting 11 20.0
2020-Aug-05 00:12 270 7 gusting 11 19.4
2020-Aug-05 00:07 281 7 gusting 10 19.4
2020-Aug-05 00:02 268 6 gusting 10 20.0
2020-Aug-04 23:57 275 6 gusting 10 20.0
2020-Aug-04 23:52 280 6 gusting 10 20.0
2020-Aug-04 23:47 262 4 gusting 8 20.0
2020-Aug-04 23:42 281 5 gusting 7 20.0
2020-Aug-04 23:37 298 5 gusting 8 19.4
2020-Aug-04 23:32 283 5 gusting 10 19.4
2020-Aug-04 23:27 299 5 gusting 10 19.4
2020-Aug-04 23:22 307 6 gusting 10 19.4
2020-Aug-04 23:17 305 6 gusting 11 19.4
2020-Aug-04 23:12 299 6 gusting 10 19.4
2020-Aug-04 23:07 306 6 gusting 10 19.4
2020-Aug-04 23:02 296 7 gusting 10 19.4
2020-Aug-04 22:57 304 6 gusting 10 19.4
2020-Aug-04 22:52 293 6 gusting 11 19.4
2020-Aug-04 22:47 278 8 gusting 11 20.0
2020-Aug-04 22:42 273 7 gusting 10 21.1
2020-Aug-04 22:37 303 7 gusting 10 22.2
2020-Aug-04 22:32 277 6 gusting 10 23.9
2020-Aug-04 22:27 300 3 gusting 8 24.4
2020-Aug-04 22:22 314 5 gusting 8 24.4
2020-Aug-04 22:17 318 4 gusting 6 25.0
2020-Aug-04 22:12 333 2 gusting 6 25.0
2020-Aug-04 22:07 303 2 gusting 7 24.4
2020-Aug-04 22:02 278 2 gusting 7 25.0
2020-Aug-04 21:57 306 2 gusting 6 25.0
2020-Aug-04 21:52 316 2 gusting 5 24.4
2020-Aug-04 21:47 033 2 gusting 6 24.4
2020-Aug-04 21:42 318 4 gusting 6 24.4
2020-Aug-04 21:37 305 2 gusting 4 24.4
2020-Aug-04 21:32 314 4 gusting 6 23.9
2020-Aug-04 21:27 327 2 gusting 6 23.9
2020-Aug-04 21:22 321 3 gusting 6 23.9
2020-Aug-04 21:17 337 3 gusting 6 23.9
2020-Aug-04 21:12 321 1 gusting 6 23.9
2020-Aug-04 21:07 357 4 gusting 7 23.9
2020-Aug-04 21:02 341 4 gusting 7 23.9
2020-Aug-04 20:57 003 5 gusting 7 23.3
2020-Aug-04 20:52 313 5 gusting 6 23.9
2020-Aug-04 20:47 276 4 gusting 7 23.9
2020-Aug-04 20:42 275 4 gusting 7 23.3
2020-Aug-04 20:37 308 4 gusting 7 23.3
2020-Aug-04 20:32 286 4 gusting 7 23.3
2020-Aug-04 20:27 291 4 gusting 10 23.3
2020-Aug-04 20:22 310 4 gusting 8 23.3
2020-Aug-04 20:17 352 4 gusting 11 23.3
2020-Aug-04 20:12 001 4 gusting 8 23.3
2020-Aug-04 20:07 003 4 gusting 6 22.8
2020-Aug-04 20:02 333 4 gusting 8 23.3
2020-Aug-04 19:57 348 3 gusting 5 22.8
2020-Aug-04 19:52 002 4 gusting 7 22.8
2020-Aug-04 19:47 22.8
2020-Aug-04 19:42 305 4 gusting 10 22.8
2020-Aug-04 19:37 017 6 gusting 11 22.2
2020-Aug-04 19:32 008 5 gusting 11 22.2
2020-Aug-04 19:27 347 3 gusting 7 22.2
2020-Aug-04 19:22 017 3 gusting 6 22.2
2020-Aug-04 19:17 019 4 gusting 6 22.2
2020-Aug-04 19:12 318 1 gusting 6 21.7
2020-Aug-04 19:07 284 5 gusting 10 21.7
2020-Aug-04 19:02 286 4 gusting 7 21.7
2020-Aug-04 18:57 312 4 gusting 8 21.7
2020-Aug-04 18:52 311 4 gusting 7 21.7
2020-Aug-04 18:47 301 5 gusting 8 21.7
2020-Aug-04 18:42 319 3 gusting 7 21.7
2020-Aug-04 18:37 286 6 gusting 10 21.7
2020-Aug-04 18:32 271 2 gusting 7 21.7
2020-Aug-04 18:27 323 2 gusting 10 21.7
2020-Aug-04 18:22 290 5 gusting 8 21.7
2020-Aug-04 18:17 011 2 gusting 7 21.7
2020-Aug-04 18:12 334 1 gusting 7 22.2
2020-Aug-04 18:07 306 0 gusting 7 22.2
2020-Aug-04 18:02 349 3 gusting 7 22.2
2020-Aug-04 17:57 344 4 gusting 6 22.2
2020-Aug-04 17:52 305 0 gusting 6 22.2
2020-Aug-04 17:47 330 4 gusting 8 22.2
2020-Aug-04 17:42 010 4 gusting 10 22.2
2020-Aug-04 17:37 009 0 gusting 2 21.7
2020-Aug-04 17:32 312 2 gusting 5 21.7
2020-Aug-04 17:27 289 2 gusting 6 22.2
2020-Aug-04 17:22 286 0 gusting 2 21.7
2020-Aug-04 17:17 013 2 gusting 10 21.7
2020-Aug-04 17:12 281 0 gusting 5 22.2
2020-Aug-04 17:07 320 2 gusting 7 21.7
2020-Aug-04 17:02 029 2 gusting 8 21.7
2020-Aug-04 16:57 057 1 gusting 2 21.7
2020-Aug-04 16:52 020 0 gusting 2 21.7
2020-Aug-04 16:47 034 21.7
2020-Aug-04 16:42 014 2 gusting 4 21.7
2020-Aug-04 16:37 309 21.7
2020-Aug-04 16:32 313 21.1
2020-Aug-04 16:27 327 0 gusting 4 21.1
2020-Aug-04 16:22 021 21.1
2020-Aug-04 16:17 025 2 gusting 5 21.1
2020-Aug-04 16:12 040 0 gusting 2 21.1
2020-Aug-04 16:07 024 0 gusting 2 21.1
2020-Aug-04 16:02 052 0 gusting 1 20.6
2020-Aug-04 15:57 037 20.6
2020-Aug-04 15:52 044 20.0
2020-Aug-04 15:47 274 19.4
2020-Aug-04 15:42 271 19.4
2020-Aug-04 15:37 270 18.9
2020-Aug-04 15:32 270 18.3
2020-Aug-04 15:27 270 18.3
2020-Aug-04 15:22 270 17.8
2020-Aug-04 15:17 270 17.2
2020-Aug-04 15:12 270 16.7
2020-Aug-04 15:07 270 16.7
2020-Aug-04 15:02 270 16.1
2020-Aug-04 14:57 270 16.1
2020-Aug-04 14:52 270 15.6
2020-Aug-04 14:47 270 15.0
2020-Aug-04 14:42 270 15.0
2020-Aug-04 14:37 270 14.4
2020-Aug-04 14:32 270 14.4
2020-Aug-04 14:27 270 13.9
2020-Aug-04 14:22 270 13.9
2020-Aug-04 14:17 270 13.3
2020-Aug-04 14:12 270 13.3
2020-Aug-04 14:07 270 12.8
2020-Aug-04 14:02 270 12.8
2020-Aug-04 13:57 270 12.2
2020-Aug-04 13:52 270 12.2
2020-Aug-04 13:47 270 12.2
2020-Aug-04 13:42 270 12.2
2020-Aug-04 13:37 270 11.7
2020-Aug-04 13:32 270 11.7
2020-Aug-04 13:27 270 11.7
2020-Aug-04 13:22 270 11.7
2020-Aug-04 13:17 270 11.7
2020-Aug-04 13:12 270 11.7
2020-Aug-04 13:07 270 11.7
2020-Aug-04 13:02 270 11.7